createdAt,value
2022-12-12T00:01:37.850Z,93726.16
2022-12-12T00:04:05.202Z,93721.41
2022-12-12T00:06:31.904Z,93727.59
2022-12-12T00:08:58.934Z,93730.34
2022-12-12T00:11:28.243Z,93705.59
2022-12-12T00:13:55.447Z,93694.50
2022-12-12T00:16:23.466Z,93625.19
2022-12-12T00:18:50.129Z,93734.00
2022-12-12T00:21:20.698Z,93743.47
2022-12-12T00:23:53.324Z,93746.53
2022-12-12T00:26:24.120Z,93761.19
2022-12-12T00:28:51.313Z,93757.69
2022-12-12T00:31:19.146Z,93757.53
2022-12-12T00:33:48.197Z,93760.78
2022-12-12T00:36:18.886Z,93758.22
2022-12-12T00:38:46.082Z,93752.09
2022-12-12T00:41:12.884Z,93745.78
2022-12-12T00:43:39.814Z,93740.09
2022-12-12T00:46:06.779Z,93743.97
2022-12-12T00:48:34.579Z,93745.41
2022-12-12T00:51:10.878Z,93751.22
2022-12-12T00:53:39.090Z,93732.66
2022-12-12T00:56:06.872Z,93752.09
2022-12-12T00:58:34.636Z,93735.47
2022-12-12T01:01:07.255Z,93754.47
2022-12-12T01:03:35.398Z,93714.50
2022-12-12T01:06:02.207Z,93753.41
2022-12-12T01:08:29.312Z,93778.44
2022-12-12T01:10:56.433Z,93757.84
2022-12-12T01:13:23.544Z,93751.69
2022-12-12T01:15:50.427Z,93779.63
2022-12-12T01:18:18.483Z,93733.88
2022-12-12T01:20:45.857Z,93747.84
2022-12-12T01:23:13.133Z,93758.47
2022-12-12T01:25:40.169Z,93766.47
2022-12-12T01:28:07.510Z,93804.81
2022-12-12T01:30:34.277Z,93790.84
2022-12-12T01:33:02.249Z,93793.06
2022-12-12T01:35:29.055Z,93777.41
2022-12-12T01:37:55.902Z,93801.69
2022-12-12T01:40:25.053Z,93790.03
2022-12-12T01:42:52.874Z,93786.09
2022-12-12T01:45:53.361Z,93796.78
2022-12-12T01:48:22.495Z,93792.47
2022-12-12T01:50:50.223Z,93802.69
2022-12-12T01:53:19.398Z,93794.69
2022-12-12T01:55:48.278Z,93797.63
2022-12-12T01:58:15.712Z,93802.06
2022-12-12T02:00:43.010Z,93782.59
2022-12-12T02:03:10.101Z,93808.38
2022-12-12T02:05:59.882Z,93783.56
2022-12-12T02:08:28.612Z,93787.56
2022-12-12T02:10:55.790Z,93806.06
2022-12-12T02:13:29.643Z,93816.09
2022-12-12T02:16:13.119Z,93826.06
2022-12-12T02:18:39.673Z,93812.19
2022-12-12T02:21:33.454Z,93791.91
2022-12-12T02:24:05.967Z,93818.22
2022-12-12T02:27:04.609Z,93811.22
2022-12-12T02:30:08.389Z,93808.88
2022-12-12T02:32:50.024Z,93813.19
2022-12-12T02:35:39.646Z,93818.13
2022-12-12T02:38:21.492Z,93801.81
2022-12-12T02:41:00.634Z,93806.31
2022-12-12T02:43:57.104Z,93802.66
2022-12-12T02:46:26.671Z,93813.94
2022-12-12T02:49:04.818Z,93812.66
2022-12-12T02:51:34.851Z,93790.09
2022-12-12T02:54:06.031Z,93798.38
2022-12-12T02:56:46.084Z,93811.25
2022-12-12T02:59:24.364Z,93810.94
2022-12-12T03:02:28.241Z,93802.22
2022-12-12T03:05:40.608Z,93783.97
2022-12-12T03:08:28.710Z,93809.31
2022-12-12T03:11:17.279Z,93801.28
2022-12-12T03:13:51.732Z,93810.41
2022-12-12T03:16:21.353Z,93806.13
2022-12-12T03:19:09.800Z,93792.69
2022-12-12T03:21:51.968Z,93796.34
2022-12-12T03:24:33.821Z,93806.44
2022-12-12T03:27:27.579Z,93802.03
2022-12-12T03:30:00.727Z,93814.03
2022-12-12T03:32:50.135Z,93817.59
2022-12-12T03:35:23.107Z,93784.84
2022-12-12T03:37:53.896Z,93834.78
2022-12-12T03:40:32.047Z,93828.66
2022-12-12T03:43:19.099Z,93823.63
2022-12-12T03:46:00.715Z,93840.81
2022-12-12T03:48:34.657Z,93830.59
2022-12-12T03:51:10.407Z,93842.19
2022-12-12T03:53:47.145Z,93844.78
2022-12-12T03:56:36.962Z,93820.94
2022-12-12T03:59:14.784Z,93864.56
2022-12-12T04:01:51.138Z,93839.31
2022-12-12T04:04:27.379Z,93856.16
2022-12-12T04:07:06.047Z,93841.00
2022-12-12T04:09:51.525Z,93842.31
2022-12-12T04:13:00.711Z,93840.28
2022-12-12T04:15:57.686Z,93857.03
2022-12-12T04:18:38.557Z,93870.34
2022-12-12T04:21:49.508Z,93866.72
2022-12-12T04:24:21.332Z,93874.84
2022-12-12T04:26:52.260Z,93873.69
2022-12-12T04:29:31.021Z,93879.91
2022-12-12T04:32:15.733Z,93876.16
2022-12-12T04:35:15.358Z,93873.13
2022-12-12T04:37:51.146Z,93862.47
2022-12-12T04:40:25.230Z,93888.06
2022-12-12T04:42:57.177Z,93865.41
2022-12-12T04:45:28.955Z,93865.72
2022-12-12T04:47:57.267Z,93856.09
2022-12-12T04:50:28.147Z,93862.19
2022-12-12T04:52:56.967Z,93873.44
2022-12-12T04:55:34.557Z,93866.75
2022-12-12T04:58:02.355Z,93884.63
2022-12-12T05:00:36.328Z,93882.84
2022-12-12T05:03:21.481Z,93885.13
2022-12-12T05:05:55.236Z,93871.69
2022-12-12T05:08:30.046Z,93889.31
2022-12-12T05:11:00.578Z,93883.06
2022-12-12T05:13:35.950Z,93878.25
2022-12-12T05:16:26.823Z,93879.34
2022-12-12T05:18:53.983Z,93874.72
2022-12-12T05:21:20.721Z,93886.00
2022-12-12T05:23:47.697Z,93890.94
2022-12-12T05:26:23.207Z,93890.09
2022-12-12T05:28:50.607Z,93883.13
2022-12-12T05:31:17.772Z,93893.31
2022-12-12T05:33:44.717Z,93893.88
2022-12-12T05:36:11.515Z,93887.31
2022-12-12T05:38:38.530Z,93893.88
2022-12-12T05:41:06.283Z,93896.44
2022-12-12T05:43:33.150Z,93894.94
2022-12-12T05:46:00.367Z,93897.88
2022-12-12T05:48:27.269Z,93894.63
2022-12-12T05:50:54.368Z,93901.50
2022-12-12T05:53:21.349Z,93890.88
2022-12-12T05:55:51.538Z,93910.50
2022-12-12T05:58:19.236Z,93897.19
2022-12-12T06:00:50.373Z,93926.59
2022-12-12T06:03:17.673Z,93922.03
2022-12-12T06:05:45.115Z,93909.13
2022-12-12T06:08:13.237Z,93890.22
2022-12-12T06:10:40.366Z,93911.94
2022-12-12T06:13:07.219Z,93915.72
2022-12-12T06:15:35.109Z,93932.47
2022-12-12T06:18:02.206Z,93918.47
2022-12-12T06:20:30.604Z,93912.09
2022-12-12T06:22:57.380Z,93942.66
2022-12-12T06:25:25.011Z,93938.97
2022-12-12T06:27:51.750Z,93936.63
2022-12-12T06:30:18.950Z,93935.66
2022-12-12T06:32:45.696Z,93961.78
2022-12-12T06:35:12.685Z,93922.22
2022-12-12T06:37:40.626Z,93946.94
2022-12-12T06:40:09.431Z,93929.75
2022-12-12T06:42:36.262Z,93961.16
2022-12-12T06:45:03.965Z,93953.84
2022-12-12T06:47:30.782Z,93951.66
2022-12-12T06:49:57.469Z,93971.38
2022-12-12T06:52:24.129Z,93965.34
2022-12-12T06:54:50.833Z,93953.31
2022-12-12T06:57:17.543Z,93970.00
2022-12-12T06:59:44.389Z,93972.38
2022-12-12T07:02:12.529Z,93976.13
2022-12-12T07:04:39.528Z,93966.13
2022-12-12T07:07:06.388Z,93977.09
2022-12-12T07:09:33.320Z,93969.69
2022-12-12T07:12:00.080Z,93987.00
2022-12-12T07:14:26.715Z,93975.72
2022-12-12T07:16:53.550Z,93982.59
2022-12-12T07:19:20.343Z,94001.66
2022-12-12T07:21:47.352Z,93998.09
2022-12-12T07:24:15.816Z,93973.78
2022-12-12T07:26:43.008Z,93954.94
2022-12-12T07:29:09.722Z,93999.47
2022-12-12T07:31:36.581Z,93976.34
2022-12-12T07:34:03.606Z,94014.81
2022-12-12T07:36:30.355Z,93932.16
2022-12-12T07:38:57.211Z,93991.72
2022-12-12T07:41:24.128Z,94033.88
2022-12-12T07:43:52.402Z,94034.19
2022-12-12T07:46:24.770Z,94023.63
2022-12-12T07:48:53.175Z,94044.50
2022-12-12T07:51:20.928Z,94042.78
2022-12-12T07:53:47.897Z,94040.75
2022-12-12T07:56:16.358Z,94009.03
2022-12-12T07:58:44.184Z,94023.63
2022-12-12T08:01:30.678Z,94054.63
2022-12-12T08:03:57.354Z,94042.66
2022-12-12T08:06:24.651Z,94054.50
2022-12-12T08:08:52.585Z,93996.81
2022-12-12T08:11:21.754Z,94072.34
2022-12-12T08:13:49.039Z,94028.25
2022-12-12T08:16:27.469Z,94048.47
2022-12-12T08:18:58.772Z,94072.94
2022-12-12T08:21:27.048Z,94066.72
2022-12-12T08:24:44.485Z,94075.72
2022-12-12T08:27:15.560Z,94085.28
2022-12-12T08:29:45.930Z,94090.94
2022-12-12T08:32:12.582Z,94070.53
2022-12-12T08:34:39.234Z,94022.50
2022-12-12T08:37:05.912Z,94056.81
2022-12-12T08:39:32.977Z,94068.75
2022-12-12T08:42:00.449Z,94070.38
2022-12-12T08:44:27.360Z,94056.94
2022-12-12T08:46:54.296Z,94018.31
2022-12-12T08:49:21.056Z,94030.94
2022-12-12T08:51:47.811Z,94059.06
2022-12-12T08:54:14.650Z,94074.91
2022-12-12T08:56:41.923Z,94076.22
2022-12-12T08:59:08.596Z,94062.66
2022-12-12T09:01:35.536Z,94066.34
2022-12-12T09:04:02.806Z,94065.34
2022-12-12T09:06:29.699Z,94030.16
2022-12-12T09:08:57.576Z,94054.81
2022-12-12T09:11:24.500Z,93989.34
2022-12-12T09:13:51.676Z,94053.09
2022-12-12T09:16:19.969Z,94050.44
2022-12-12T09:18:49.361Z,93988.72
2022-12-12T09:21:16.902Z,94003.50
2022-12-12T09:23:43.779Z,94071.00
2022-12-12T09:26:10.832Z,94047.72
2022-12-12T09:28:38.027Z,94020.63
2022-12-12T09:31:10.123Z,94057.50
2022-12-12T09:33:37.241Z,94059.00
2022-12-12T09:36:06.807Z,94055.69
2022-12-12T09:38:34.619Z,94034.66
2022-12-12T09:41:10.947Z,94041.56
2022-12-12T09:43:44.633Z,94049.69
2022-12-12T09:46:21.962Z,94025.19
2022-12-12T09:48:48.607Z,94039.63
2022-12-12T09:51:15.261Z,94049.97
2022-12-12T09:53:45.527Z,94051.59
2022-12-12T09:56:18.312Z,94046.63
2022-12-12T09:59:08.197Z,94044.13
2022-12-12T10:01:46.772Z,94029.28
2022-12-12T10:04:50.605Z,94031.56
2022-12-12T10:07:27.175Z,94028.91
2022-12-12T10:10:17.372Z,94030.41
2022-12-12T10:12:45.651Z,94029.75
2022-12-12T10:15:30.433Z,94010.53
2022-12-12T10:18:00.520Z,94020.41
2022-12-12T10:20:30.708Z,94023.28
2022-12-12T10:23:17.723Z,94027.81
2022-12-12T10:25:53.477Z,94010.75
2022-12-12T10:28:23.754Z,93994.63
2022-12-12T10:31:12.242Z,94001.28
2022-12-12T10:33:53.688Z,93989.00
2022-12-12T10:36:44.289Z,93922.78
2022-12-12T10:39:17.227Z,93978.34
2022-12-12T10:42:10.489Z,93983.72
2022-12-12T10:44:55.460Z,93987.22
2022-12-12T10:47:23.404Z,93953.88
2022-12-12T10:49:54.726Z,93914.41
2022-12-12T10:52:23.913Z,93918.19
2022-12-12T10:55:00.578Z,93864.59
2022-12-12T10:57:37.849Z,93975.16
2022-12-12T11:00:27.399Z,93938.13
2022-12-12T11:03:00.200Z,93929.88
2022-12-12T11:05:30.199Z,93983.75
2022-12-12T11:08:18.220Z,93948.03
2022-12-12T11:10:45.492Z,93891.00
2022-12-12T11:13:12.401Z,93991.81
2022-12-12T11:15:46.326Z,93980.13
2022-12-12T11:18:21.894Z,93939.16
2022-12-12T11:20:56.667Z,93922.28
2022-12-12T11:23:25.954Z,93908.84
2022-12-12T11:25:58.362Z,93933.13
2022-12-12T11:28:28.656Z,93975.13
2022-12-12T11:30:56.837Z,93994.09
2022-12-12T11:33:31.383Z,93950.91
2022-12-12T11:35:59.665Z,93909.16
2022-12-12T11:38:38.597Z,93971.72
2022-12-12T11:41:09.013Z,93969.06
2022-12-12T11:43:38.409Z,93930.03
2022-12-12T11:46:24.163Z,93972.78
2022-12-12T11:48:53.643Z,93967.22
2022-12-12T11:51:43.748Z,93954.75
2022-12-12T11:54:20.958Z,93966.94
2022-12-12T11:56:57.784Z,93959.25
2022-12-12T11:59:42.744Z,93957.03
2022-12-12T12:02:47.175Z,93950.03
2022-12-12T12:05:34.124Z,93951.09
2022-12-12T12:08:10.103Z,93950.78
2022-12-12T12:11:06.220Z,93922.34
2022-12-12T12:13:54.435Z,93878.78
2022-12-12T12:16:46.881Z,93923.34
2022-12-12T12:19:42.238Z,93884.28
2022-12-12T12:22:39.310Z,93916.25
2022-12-12T12:25:20.840Z,93914.03
2022-12-12T12:27:52.639Z,93901.19
2022-12-12T12:30:47.520Z,93880.66
2022-12-12T12:33:32.795Z,93899.53
2022-12-12T12:36:19.267Z,93910.88
2022-12-12T12:39:02.190Z,93851.81
2022-12-12T12:41:47.722Z,93909.09
2022-12-12T12:44:23.738Z,93904.06
2022-12-12T12:47:07.811Z,93906.84
2022-12-12T12:49:44.900Z,93914.75
2022-12-12T12:52:21.806Z,93893.03
2022-12-12T12:54:49.661Z,93932.22
2022-12-12T12:57:38.342Z,93870.16
2022-12-12T13:00:16.600Z,93892.75
2022-12-12T13:02:55.541Z,93905.66
2022-12-12T13:05:50.504Z,93911.50
2022-12-12T13:08:23.724Z,93902.25
2022-12-12T13:10:58.832Z,93888.78
2022-12-12T13:13:31.975Z,93841.81
2022-12-12T13:16:08.816Z,93860.34
2022-12-12T13:18:52.419Z,93809.44
2022-12-12T13:21:52.333Z,93908.53
2022-12-12T13:24:46.368Z,93904.91
2022-12-12T13:27:45.966Z,93798.38
2022-12-12T13:30:23.666Z,93911.47
2022-12-12T13:33:24.547Z,93907.31
2022-12-12T13:35:54.880Z,93905.13
2022-12-12T13:38:32.328Z,93842.28
2022-12-12T13:41:02.379Z,93928.53
2022-12-12T13:43:31.076Z,93862.56
2022-12-12T13:45:58.333Z,93937.75
2022-12-12T13:48:28.075Z,93935.09
2022-12-12T13:51:27.705Z,93937.22
2022-12-12T13:54:13.762Z,93927.94
2022-12-12T13:56:44.128Z,93917.13
2022-12-12T13:59:30.426Z,93896.31
2022-12-12T14:02:00.955Z,93928.53
2022-12-12T14:04:35.677Z,93932.28
2022-12-12T14:07:21.882Z,93938.75
2022-12-12T14:09:52.454Z,93859.59
2022-12-12T14:12:30.762Z,93809.31
2022-12-12T14:15:02.440Z,93881.44
2022-12-12T14:17:35.417Z,93887.88
2022-12-12T14:20:07.881Z,93839.38
2022-12-12T14:22:38.765Z,93939.38
2022-12-12T14:25:20.674Z,93899.78
2022-12-12T14:27:50.423Z,93923.44
2022-12-12T14:30:23.085Z,93882.53
2022-12-12T14:33:18.024Z,93935.00
2022-12-12T14:35:53.994Z,93866.16
2022-12-12T14:38:20.855Z,93949.53
2022-12-12T14:41:02.080Z,93901.06
2022-12-12T14:43:36.233Z,93870.66
2022-12-12T14:46:03.970Z,93850.00
2022-12-12T14:48:31.861Z,93901.63
2022-12-12T14:51:10.640Z,93932.25
2022-12-12T14:53:37.358Z,93933.03
2022-12-12T14:56:09.968Z,93910.81
2022-12-12T14:58:43.620Z,93936.75
2022-12-12T15:01:10.932Z,93935.78
2022-12-12T15:03:48.247Z,93919.47
2022-12-12T15:06:24.098Z,93933.47
2022-12-12T15:08:52.441Z,93889.22
2022-12-12T15:11:25.373Z,93952.06
2022-12-12T15:13:53.029Z,93953.47
2022-12-12T15:16:26.395Z,93887.75
2022-12-12T15:18:56.428Z,93946.41
2022-12-12T15:21:23.511Z,93911.28
2022-12-12T15:23:50.637Z,93872.75
2022-12-12T15:26:26.494Z,93922.16
2022-12-12T15:28:53.682Z,93909.16
2022-12-12T15:31:21.221Z,93893.16
2022-12-12T15:33:52.453Z,93906.19
2022-12-12T15:36:19.069Z,93941.91
2022-12-12T15:38:46.565Z,93882.91
2022-12-12T15:41:14.405Z,93908.56
2022-12-12T15:43:43.240Z,93924.06
2022-12-12T15:46:15.206Z,93926.69
2022-12-12T15:48:47.329Z,93955.72
2022-12-12T15:51:21.089Z,93858.09
2022-12-12T15:53:53.310Z,93925.25
2022-12-12T15:56:20.408Z,93953.94
2022-12-12T15:59:13.407Z,93978.28
2022-12-12T16:01:40.690Z,93943.22
2022-12-12T16:04:10.820Z,93956.91
2022-12-12T16:06:40.987Z,93948.81
2022-12-12T16:09:16.748Z,93969.56
2022-12-12T16:11:47.095Z,93976.69
2022-12-12T16:14:40.117Z,93992.06
2022-12-12T16:17:26.157Z,93965.03
2022-12-12T16:20:05.080Z,94004.50
2022-12-12T16:22:48.620Z,93988.88
2022-12-12T16:25:27.039Z,93960.78
2022-12-12T16:28:02.600Z,94012.56
2022-12-12T16:30:29.645Z,93984.03
2022-12-12T16:32:56.259Z,93999.41
2022-12-12T16:35:25.203Z,94025.00
2022-12-12T16:37:55.713Z,94029.63
2022-12-12T16:40:23.425Z,94037.75
2022-12-12T16:43:09.427Z,94012.66
2022-12-12T16:45:37.875Z,94037.44
2022-12-12T16:48:16.218Z,94051.41
2022-12-12T16:50:43.907Z,94016.22
2022-12-12T16:53:11.421Z,94038.72
2022-12-12T16:55:42.444Z,94070.41
2022-12-12T16:58:09.922Z,94072.28
2022-12-12T17:00:38.214Z,94063.53
2022-12-12T17:03:05.946Z,94074.88
2022-12-12T17:05:32.753Z,94077.94
2022-12-12T17:08:00.567Z,94085.66
2022-12-12T17:10:27.650Z,94052.03
2022-12-12T17:12:55.107Z,94085.47
2022-12-12T17:15:27.933Z,94082.81
2022-12-12T17:17:55.578Z,94121.94
2022-12-12T17:20:23.714Z,94125.94
2022-12-12T17:22:52.165Z,94106.38
2022-12-12T17:25:20.142Z,94130.28
2022-12-12T17:27:47.176Z,94135.63
2022-12-12T17:30:14.588Z,94128.97
2022-12-12T17:32:42.730Z,94132.06
2022-12-12T17:35:09.614Z,94120.50
2022-12-12T17:37:36.731Z,94141.53
2022-12-12T17:40:06.351Z,94155.09
2022-12-12T17:42:33.409Z,94145.78
2022-12-12T17:45:00.578Z,94156.84
2022-12-12T17:47:27.737Z,94122.13
2022-12-12T17:49:54.479Z,94182.44
2022-12-12T17:52:21.629Z,94156.97
2022-12-12T17:55:51.420Z,94206.53
2022-12-12T17:57:36.641Z,94192.81
2022-12-12T18:00:04.741Z,94176.81
2022-12-12T18:02:34.346Z,94213.44
2022-12-12T18:05:04.168Z,94154.50
2022-12-12T18:07:31.236Z,94222.34
2022-12-12T18:09:58.369Z,94181.25
2022-12-12T18:12:25.905Z,94173.09
2022-12-12T18:14:52.846Z,94213.25
2022-12-12T18:17:19.983Z,94250.47
2022-12-12T18:19:47.157Z,94178.66
2022-12-12T18:22:14.115Z,94262.38
2022-12-12T18:24:40.990Z,94202.38
2022-12-12T18:27:07.832Z,94217.81
2022-12-12T18:29:34.595Z,94203.84
2022-12-12T18:32:01.762Z,94270.41
2022-12-12T18:34:28.481Z,94238.56
2022-12-12T18:36:55.490Z,94259.78
2022-12-12T18:39:22.246Z,94251.53
2022-12-12T18:41:48.983Z,94234.13
2022-12-12T18:44:16.490Z,94256.78
2022-12-12T18:46:44.227Z,94263.22
2022-12-12T18:49:15.963Z,94266.16
2022-12-12T18:51:46.502Z,94263.47
2022-12-12T18:54:15.918Z,94153.03
2022-12-12T18:56:45.141Z,94269.53
2022-12-12T18:59:12.134Z,94255.00
2022-12-12T19:01:39.407Z,94245.88
2022-12-12T19:04:11.760Z,94222.69
2022-12-12T19:06:41.898Z,94248.03
2022-12-12T19:09:19.809Z,94260.88
2022-12-12T19:11:47.589Z,94254.88
2022-12-12T19:14:16.397Z,94242.72
2022-12-12T19:16:43.965Z,94247.38
2022-12-12T19:19:11.021Z,94252.66
2022-12-12T19:21:45.179Z,94269.25
2022-12-12T19:24:12.740Z,94248.41
2022-12-12T19:26:42.012Z,94215.59
2022-12-12T19:29:13.098Z,94244.88
2022-12-12T19:31:40.257Z,94239.06
2022-12-12T19:34:08.117Z,94255.97
2022-12-12T19:39:17.168Z,94255.06
2022-12-12T19:41:43.997Z,94251.09
2022-12-12T19:44:13.065Z,94256.34
2022-12-12T19:46:42.073Z,94249.41
2022-12-12T19:49:11.171Z,94260.00
2022-12-12T19:51:39.461Z,94228.94
2022-12-12T19:54:12.590Z,94237.22
2022-12-12T19:56:42.434Z,94251.88
2022-12-12T19:59:12.182Z,94268.31
2022-12-12T20:01:39.788Z,94253.13
2022-12-12T20:04:18.447Z,94265.22
2022-12-12T20:06:46.146Z,94273.41
2022-12-12T20:09:26.173Z,94291.50
2022-12-12T20:11:54.744Z,94289.34
2022-12-12T20:14:30.843Z,94280.75
2022-12-12T20:16:58.473Z,94297.56
2022-12-12T20:19:31.263Z,94297.25
2022-12-12T20:22:01.172Z,94292.13
2022-12-12T20:24:29.249Z,94310.13
2022-12-12T20:26:56.618Z,94306.44
2022-12-12T20:29:23.860Z,94283.44
2022-12-12T20:32:01.362Z,94279.44
2022-12-12T20:34:28.934Z,94318.81
2022-12-12T20:36:56.050Z,94257.38
2022-12-12T20:39:25.122Z,94281.03
2022-12-12T20:41:56.698Z,94319.13
2022-12-12T20:44:25.765Z,94323.88
2022-12-12T20:46:54.083Z,94343.91
2022-12-12T20:49:24.212Z,94319.94
2022-12-12T20:51:56.383Z,94333.53
2022-12-12T20:54:24.922Z,94334.75
2022-12-12T20:56:53.506Z,94329.88
2022-12-12T20:59:20.411Z,94338.22
2022-12-12T21:01:47.762Z,94311.78
2022-12-12T21:04:15.480Z,94326.88
2022-12-12T21:06:44.761Z,94361.19
2022-12-12T21:09:16.319Z,94316.41
2022-12-12T21:11:44.718Z,94336.91
2022-12-12T21:14:11.474Z,94303.84
2022-12-12T21:16:39.606Z,94240.50
2022-12-12T21:19:09.990Z,94353.50
2022-12-12T21:21:37.662Z,94326.59
2022-12-12T21:24:05.452Z,94338.16
2022-12-12T21:26:33.546Z,94352.47
2022-12-12T21:29:02.064Z,94377.78
2022-12-12T21:31:36.592Z,94379.63
2022-12-12T21:34:05.458Z,94338.63
2022-12-12T21:36:32.967Z,94320.13
2022-12-12T21:39:01.554Z,94399.59
2022-12-12T21:41:28.779Z,94356.31
2022-12-12T21:43:56.822Z,94380.88
2022-12-12T21:46:25.866Z,94395.75
2022-12-12T21:49:12.222Z,94405.69
2022-12-12T21:51:40.781Z,94369.72
2022-12-12T21:54:10.399Z,94407.19
2022-12-12T21:56:37.391Z,94387.44
2022-12-12T21:59:04.425Z,94375.25
2022-12-12T22:01:34.564Z,94331.88
2022-12-12T22:04:01.983Z,94403.53
2022-12-12T22:06:31.352Z,94398.59
2022-12-12T22:09:00.331Z,94381.56
2022-12-12T22:11:40.394Z,94395.28
2022-12-12T22:14:14.732Z,94412.44
2022-12-12T22:16:41.491Z,94388.47
2022-12-12T22:19:11.601Z,94412.09
2022-12-12T22:21:38.795Z,94397.28
2022-12-12T22:24:06.107Z,94354.13
2022-12-12T22:26:37.000Z,94404.94
2022-12-12T22:29:10.760Z,94311.25
2022-12-12T22:31:39.270Z,94363.25
2022-12-12T22:34:12.118Z,94411.50
2022-12-12T22:36:46.333Z,94414.56
2022-12-12T22:39:17.761Z,94383.97
2022-12-12T22:41:50.801Z,94420.78
2022-12-12T22:44:19.663Z,94414.00
2022-12-12T22:46:48.632Z,94428.84
2022-12-12T22:49:18.880Z,94433.03
2022-12-12T22:51:46.887Z,94433.03
2022-12-12T22:54:13.878Z,94434.59
2022-12-12T22:56:41.947Z,94437.25
2022-12-12T22:59:12.074Z,94431.97
2022-12-12T23:01:39.475Z,94430.13
2022-12-12T23:04:06.950Z,94441.56
2022-12-12T23:06:35.878Z,94404.38
2022-12-12T23:09:08.164Z,94425.97
2022-12-12T23:11:38.193Z,94365.13
2022-12-12T23:14:09.313Z,94401.16
2022-12-12T23:16:36.087Z,94439.63
2022-12-12T23:19:05.776Z,94433.88
2022-12-12T23:21:34.453Z,94442.97
2022-12-12T23:24:01.772Z,94353.38
2022-12-12T23:26:30.339Z,94436.06
2022-12-12T23:28:58.965Z,94419.34
2022-12-12T23:31:29.334Z,94419.72
2022-12-12T23:34:04.856Z,94425.88
2022-12-12T23:36:32.003Z,94454.00
2022-12-12T23:39:06.891Z,94450.56
2022-12-12T23:41:36.663Z,94441.78
2022-12-12T23:44:04.526Z,94450.94
2022-12-12T23:46:34.302Z,94446.03
2022-12-12T23:49:13.730Z,94457.44
2022-12-12T23:51:49.411Z,94459.38
2022-12-12T23:54:22.299Z,94442.59
2022-12-12T23:56:50.261Z,94468.75
2022-12-12T23:59:18.903Z,94455.31
